Map

Track Data

SID SEASON NUMBER BASIN SUBBASIN NAME ISO_TIME NATURE LAT LON WMO_WIND WMO_PRES WMO_AGENCY TRACK_TYPE DIST2LAND LANDFALL IFLAG USA_AGENCY USA_ATCF_ID USA_LAT USA_LON USA_RECORD USA_STATUS USA_WIND USA_PRES USA_SSHS USA_R34_NE USA_R34_SE USA_R34_SW USA_R34_NW USA_R50_NE USA_R50_SE USA_R50_SW USA_R50_NW USA_R64_NE USA_R64_SE USA_R64_SW USA_R64_NW USA_POCI USA_ROCI USA_RMW USA_EYE TOKYO_LAT TOKYO_LON TOKYO_GRADE TOKYO_WIND TOKYO_PRES TOKYO_R50_DIR TOKYO_R50_LONG TOKYO_R50_SHORT TOKYO_R30_DIR TOKYO_R30_LONG TOKYO_R30_SHORT TOKYO_LAND CMA_LAT CMA_LON CMA_CAT CMA_WIND CMA_PRES HKO_LAT HKO_LON HKO_CAT HKO_WIND HKO_PRES NEWDELHI_LAT NEWDELHI_LON NEWDELHI_GRADE NEWDELHI_WIND NEWDELHI_PRES NEWDELHI_CI NEWDELHI_DP NEWDELHI_POCI REUNION_LAT REUNION_LON REUNION_TYPE REUNION_WIND REUNION_PRES REUNION_TNUM REUNION_CI REUNION_RMW REUNION_R34_NE REUNION_R34_SE REUNION_R34_SW REUNION_R34_NW REUNION_R50_NE REUNION_R50_SE REUNION_R50_SW REUNION_R50_NW REUNION_R64_NE REUNION_R64_SE REUNION_R64_SW REUNION_R64_NW BOM_LAT BOM_LON BOM_TYPE BOM_WIND BOM_PRES BOM_TNUM BOM_CI BOM_RMW BOM_R34_NE BOM_R34_SE BOM_R34_SW BOM_R34_NW BOM_R50_NE BOM_R50_SE BOM_R50_SW BOM_R50_NW BOM_R64_NE BOM_R64_SE BOM_R64_SW BOM_R64_NW BOM_ROCI BOM_POCI BOM_EYE BOM_POS_METHOD BOM_PRES_METHOD NADI_LAT NADI_LON NADI_CAT NADI_WIND NADI_PRES WELLINGTON_LAT WELLINGTON_LON WELLINGTON_WIND WELLINGTON_PRES DS824_LAT DS824_LON DS824_STAGE DS824_WIND DS824_PRES TD9636_LAT TD9636_LON TD9636_STAGE TD9636_WIND TD9636_PRES TD9635_LAT TD9635_LON TD9635_WIND TD9635_PRES TD9635_ROCI NEUMANN_LAT NEUMANN_LON NEUMANN_CLASS NEUMANN_WIND NEUMANN_PRES MLC_LAT MLC_LON MLC_CLASS MLC_WIND MLC_PRES USA_GUST BOM_GUST BOM_GUST_PER REUNION_GUST REUNION_GUST_PER USA_SEAHGT USA_SEARAD_NE USA_SEARAD_SE USA_SEARAD_SW USA_SEARAD_NW STORM_SPEED STORM_DIR
1865335S13061 1866 25 SI MM NOT_NAMED 1865-12-01 06:00:00 NR -12.6000 61.1000 reunion spur-split 914 899 _____O________ -1 -12.6000 61.1000 99 9.90000 4 231
1865335S13061 1866 25 SI MM NOT_NAMED 1865-12-01 09:00:00 NR -12.7076 60.9573 spur-split 899 881 _____P________ -1 -12.7076 60.9573 99 4 232
1865335S13061 1866 25 SI MM NOT_NAMED 1865-12-01 12:00:00 NR -12.8144 60.8162 spur-split 881 866 _____P________ -1 -12.8144 60.8162 99 3 232
1865335S13061 1866 25 SI MM NOT_NAMED 1865-12-01 15:00:00 NR -12.9197 60.6784 spur-split 866 852 _____P________ -1 -12.9197 60.6784 99 3 232
1865335S13061 1866 25 SI MM NOT_NAMED 1865-12-01 18:00:00 NR -13.0229 60.5457 spur-split 848 834 _____P________ -1 -13.0229 60.5457 99 3 231
1865335S13061 1866 25 SI MM NOT_NAMED 1865-12-01 21:00:00 NR -13.1232 60.4197 spur-split 834 820 _____P________ -1 -13.1232 60.4197 99 3 230
1865335S13061 1866 25 SI MM NOT_NAMED 1865-12-02 00:00:00 NR -13.2199 60.3023 spur-split 820 806 _____P________ -1 -13.2199 60.3023 99 3 229
1865335S13061 1866 25 SI MM NOT_NAMED 1865-12-02 03:00:00 NR -13.3124 60.1952 spur-split 806 792 _____P________ -1 -13.3124 60.1952 99 3 228
1865335S13061 1866 25 SI MM NOT_NAMED 1865-12-02 06:00:00 NR -13.4000 60.1000 reunion spur-split 792 778 _____O________ -1 -13.4000 60.1000 99 9.90000 2 226
1865335S13061 1866 25 SI MM NOT_NAMED 1865-12-02 09:00:00 NR -13.4827 60.0178 spur-split 778 767 _____P________ -1 -13.4827 60.0178 99 2 222
1865335S13061 1866 25 SI MM NOT_NAMED 1865-12-02 12:00:00 NR -13.5633 59.9468 spur-split 764 764 _____P________ -1 -13.5633 59.9468 99 2 219
1865335S13061 1866 25 SI MM NOT_NAMED 1865-12-02 15:00:00 NR -13.6453 59.8840 spur-split 764 750 _____P________ -1 -13.6453 59.8840 99 2 215
1865335S13061 1866 25 SI MM NOT_NAMED 1865-12-02 18:00:00 NR -13.7323 59.8269 spur-split 750 739 _____P________ -1 -13.7323 59.8269 99 2 209
1865335S13061 1866 25 SI MM NOT_NAMED 1865-12-02 21:00:00 NR -13.8277 59.7726 spur-split 739 725 _____P________ -1 -13.8277 59.7726 99 2 207
1865335S13061 1866 25 SI MM NOT_NAMED 1865-12-03 00:00:00 NR -13.9352 59.7186 spur-split 725 704 _____P________ -1 -13.9352 59.7186 99 3 205
1865335S13061 1866 25 SI MM NOT_NAMED 1865-12-03 03:00:00 NR -14.0581 59.6619 spur-split 704 690 _____P________ -1 -14.0581 59.6619 99 3 203
1865335S13061 1866 25 SI MM NOT_NAMED 1865-12-03 06:00:00 NR -14.2000 59.6000 reunion spur-split 690 676 _____O________ -1 -14.2000 59.6000 99 9.90000 3 208
1865335S13061 1866 25 SI MM NOT_NAMED 1865-12-03 09:00:00 NR -14.3574 59.4992 spur-split 665 652 _____P________ -1 -14.3574 59.4992 99 4 211
1865335S13061 1866 25 SI MM NOT_NAMED 1865-12-03 12:00:00 NR -14.5321 59.3915 spur-split 652 627 _____P________ -1 -14.5321 59.3915 99 4 210
1865335S13061 1866 25 SI MM NOT_NAMED 1865-12-03 15:00:00 NR -14.7233 59.2820 spur-split 627 603 _____P________ -1 -14.7233 59.2820 99 5 208
1865335S13061 1866 25 SI MM NOT_NAMED 1865-12-03 18:00:00 NR -14.9303 59.1764 spur-split 603 578 _____P________ -1 -14.9303 59.1764 99 5 205
1865335S13061 1866 25 SI MM NOT_NAMED 1865-12-03 21:00:00 NR -15.1522 59.0799 spur-split 567 543 _____P________ -1 -15.1522 59.0799 99 5 201
1865335S13061 1866 25 SI MM NOT_NAMED 1865-12-04 00:00:00 NR -15.3883 58.9980 spur-split 543 519 _____P________ -1 -15.3883 58.9980 99 5 196
1865335S13061 1866 25 SI MM NOT_NAMED 1865-12-04 03:00:00 NR -15.6378 58.9362 spur-split 519 486 _____P________ -1 -15.6378 58.9362 99 5 190
1865335S13061 1866 25 SI MM NOT_NAMED 1865-12-04 06:00:00 NR -15.9000 58.9000 reunion spur-split 486 454 _____O________ -1 -15.9000 58.9000 99 9.90000 5 185
1865335S13061 1866 25 SI MM NOT_NAMED 1865-12-04 09:00:00 NR -16.1827 58.9005 spur-split 454 422 _____P________ -1 -16.1827 58.9005 99 6 0
1865335S13061 1866 25 SI MM NOT_NAMED 1865-12-04 12:00:00 NR -16.4821 58.9258 spur-split 422 393 _____P________ -1 -16.4821 58.9258 99 6 174
1865335S13061 1866 25 SI MM NOT_NAMED 1865-12-04 15:00:00 NR -16.7923 58.9722 spur-split 393 362 _____P________ -1 -16.7923 58.9722 99 6 170
1865335S13061 1866 25 SI MM NOT_NAMED 1865-12-04 18:00:00 NR -17.1074 59.0364 spur-split 362 336 _____P________ -1 -17.1074 59.0364 99 6 168
1865335S13061 1866 25 SI MM NOT_NAMED 1865-12-04 21:00:00 NR -17.4216 59.1149 spur-split 336 311 _____P________ -1 -17.4216 59.1149 99 6 166
1865335S13061 1866 25 SI MM NOT_NAMED 1865-12-05 00:00:00 NR -17.7290 59.2040 spur-split 311 288 _____P________ -1 -17.7290 59.2040 99 6 163
1865335S13061 1866 25 SI MM NOT_NAMED 1865-12-05 03:00:00 NR -18.0238 59.3003 spur-split 288 269 _____P________ -1 -18.0238 59.3003 99 6 162
1865335S13061 1866 25 SI MM NOT_NAMED 1865-12-05 06:00:00 NR -18.3000 59.4000 reunion spur-split 269 260 _____O________ -1 -18.3000 59.4000 99 9.90000 6 160
1865335S13061 1866 25 SI MM NOT_NAMED 1865-12-05 09:00:00 NR -18.5533 59.5002 spur-split 252 245 _____P________ -1 -18.5533 59.5002 99 5 159
1865335S13061 1866 25 SI MM NOT_NAMED 1865-12-05 12:00:00 NR -18.7853 59.6003 spur-split 246 240 _____P________ -1 -18.7853 59.6003 99 5 157
1865335S13061 1866 25 SI MM NOT_NAMED 1865-12-05 15:00:00 NR -18.9991 59.7002 spur-split 243 237 _____P________ -1 -18.9991 59.7002 99 5 155
1865335S13061 1866 25 SI MM NOT_NAMED 1865-12-05 18:00:00 NR -19.1976 59.8001 spur-split 241 237 _____P________ -1 -19.1976 59.8001 99 4 154
1865335S13061 1866 25 SI MM NOT_NAMED 1865-12-05 21:00:00 NR -19.3839 59.9000 spur-split 241 237 _____P________ -1 -19.3839 59.9000 99 4 153
1865335S13061 1866 25 SI MM NOT_NAMED 1865-12-06 00:00:00 NR -19.5610 59.9999 spur-split 242 242 _____P________ -1 -19.5610 59.9999 99 4 152
1865335S13061 1866 25 SI MM NOT_NAMED 1865-12-06 03:00:00 NR -19.7321 60.0999 spur-split 249 246 _____P________ -1 -19.7321 60.0999 99 4 151
1865335S13061 1866 25 SI MM NOT_NAMED 1865-12-06 06:00:00 NR -19.9000 60.2000 reunion spur-split 254 _____O________ -1 -19.9000 60.2000 99 9.90000 4 150

About IBTrACS Database

This database is a web-friendly format of International Best Track Archive for Climate Stewardship (IBTrACS), a global best track data archive curated by NOAA dating back to 1842.

Updated: 2021-12-06